Latest Coastal Weather Observations for Wyndham Airport

IDW60701

Issued at 12:12 am WST Sunday 1 February 2015 (issued every 10 minutes, with the page automatically refreshed every 10 minutes)

About coastal observations | Map of coastal stations | Coastal observations for WA | Marine services | Other Formats
Station Details ID: 001006 Name: WYNDHAM AERO Lat: -15.51 Lon: 128.15 Height: 3.8 m
Data from the previous 72 hours. | See also: Recent months for locations in Western Australia
Date/Time
WST
Temp

°C
Wind Pressure Rain
since 9am
mm
Weather Cloud Vis
km
Sea
Height
m
Swell
Dir
 
Speed
knots
Gust
knots
hPa Trend Height
m
Period
s
Dir
01/12:00am 28.7 E 2 4 1006.9 - 0.0 - - - - - - -
 
Date/Time
WST
Temp

°C
Wind Pressure Rain
since 9am
mm
Weather Cloud Vis
km
Sea
Height
m
Swell
Dir
 
Speed
knots
Gust
knots
hPa Trend Height
m
Period
s
Dir
31/11:30pm 29.1 ENE 3 4 1007.3 - 0.0 - - - - - - -
31/11:00pm 29.9 WNW 3 4 1007.6 - 0.0 - - - - - - -
31/10:30pm 30.2 N 6 8 1007.8 - 0.0 - - - - - - -
31/10:00pm 29.9 N 5 7 1008.1 - 0.0 - - - - - - -
31/09:30pm 30.2 NE 5 6 1007.9 - 0.0 - - - - - - -
31/09:00pm 30.8 ENE 1 5 1007.5 - 0.0 - - - - - - -
31/08:30pm 30.9 E 4 4 1007.2 - 0.0 - - - - - - -
31/08:00pm 30.9 E 5 5 1006.9 - 0.0 - - - - - - -
31/07:30pm 31.3 ESE 6 7 1006.6 - 0.0 - - - - - - -
31/07:00pm 31.6 E 5 7 1006.1 - 0.0 - - - - - - -
31/06:30pm 32.2 E 7 8 1005.7 - 0.0 - - - - - - -
31/06:00pm 33.2 NE 3 4 1005.1 - 0.0 - - - - - - -
31/05:30pm 34.2 E 4 6 1004.7 - 0.0 - - - - - - -
31/05:00pm 35.3 E 5 7 1004.1 - 0.0 - - - - - - -
31/04:30pm 35.7 NNE 1 5 1003.9 - 0.0 - - - - - - -
31/04:00pm 35.5 ESE 2 5 1004.0 - 0.0 - - - - - - -
31/03:30pm 35.7 SE 3 6 1004.2 - 0.0 - - - - - - -
31/03:00pm 35.6 S 2 5 1004.4 - 0.0 - - - - - - -
31/02:30pm 35.5 SSE 4 6 1004.9 - 0.0 - - - - - - -
31/02:00pm 35.3 SE 5 7 1005.2 - 0.0 - - - - - - -
31/01:30pm 35.3 SW 3 6 1005.5 - 0.0 - - - - - - -
31/01:00pm 34.8 SE 5 9 1005.9 - 0.0 - - - - - - -
31/12:30pm 34.3 SSW 5 8 1006.3 - 0.0 - - - - - - -
31/12:00pm 33.5 WSW 5 9 1006.7 - 0.0 - - - - - - -
31/11:30am 33.0 E 3 5 1007.2 - 0.0 - - - - - - -
31/11:00am 32.3 SW 4 9 1007.7 - 0.0 - - - - - - -
31/10:30am 32.0 SSW 6 9 1008.1 - 0.0 - - - - - - -
31/10:00am 31.1 SW 6 8 1008.5 - 0.0 - - - - - - -
31/09:30am 30.9 WSW 5 7 1008.7 - 0.0 - - - - - - -
31/09:00am 29.9 SW 6 8 1008.8 - 4.8 - - - - - - -
31/08:30am 29.4 SW 7 9 1009.1 - 4.8 - - - - - - -
31/08:00am 28.5 SW 7 8 1009.0 - 4.8 - - - - - - -
31/07:30am 28.1 W 6 8 1009.0 - 4.8 - - - - - - -
31/07:00am 27.4 W 8 9 1009.0 - 4.8 - - - - - - -
31/06:30am 26.4 CALM 0 0 1008.8 - 4.8 - - - - - - -
31/06:00am 25.8 CALM 0 0 1008.0 - 4.8 - - - - - - -
31/05:30am 25.2 CALM 0 0 1007.8 - 4.8 - - - - - - -
31/05:00am 25.2 CALM 0 0 1007.7 - 4.8 - - - - - - -
31/04:30am 25.1 CALM 0 0 1007.5 - 4.8 - - - - - - -
31/04:00am 25.1 CALM 0 0 1007.2 - 4.8 - - - - - - -
31/03:30am 25.3 CALM 0 0 1007.2 - 4.8 - - - - - - -
31/03:00am 25.4 CALM 0 0 1007.2 - 4.8 - - - - - - -
31/02:30am 25.1 CALM 0 0 1007.1 - 4.8 - - - - - - -
31/02:00am 25.3 CALM 0 0 1007.4 - 4.8 - - - - - - -
31/01:30am 25.2 CALM 0 0 1007.5 - 4.8 - - - - - - -
31/01:00am 25.1 CALM 0 0 1007.6 - 4.8 - - - - - - -
31/12:30am 25.1 CALM 0 0 1007.7 - 4.8 - - - - - - -
31/12:00am 25.1 CALM 0 0 1008.0 - 4.8 - - - - - - -
 
Date/Time
WST
Temp

°C
Wind Pressure Rain
since 9am
mm
Weather Cloud Vis
km
Sea
Height
m
Swell
Dir
 
Speed
knots
Gust
knots
hPa Trend Height
m
Period
s
Dir
30/11:30pm 25.0 WSW 1 4 1008.2 - 4.8 - - - - - - -
30/11:00pm 24.9 WSW 6 7 1008.5 - 4.8 - - - - - - -
30/10:30pm 24.9 SW 6 6 1008.3 - 4.6 - - - - - - -
30/10:00pm 24.9 W 4 5 1008.7 - 4.6 - - - - - - -
30/09:30pm 24.9 SW 5 5 1009.0 - 4.0 - - - - - - -
30/09:00pm 25.0 SSW 6 7 1009.0 - 2.8 Rain - - - - - -
30/08:30pm 25.6 CALM 0 2 1008.6 - 1.2 - - - - - - -
30/08:00pm 25.8 NNW 3 5 1008.5 - 0.0 - - - - - - -
30/07:30pm 26.5 WNW 13 17 1008.4 - 0.0 - - - - - - -
30/07:00pm 27.2 NW 15 25 1008.5 - 0.0 - - - - - - -
30/06:56pm 28.3 NNW 9 25 1008.2 - 0.0 - - - - - - -
30/06:30pm 29.1 NE 5 7 1006.7 - 0.0 - - - - - - -
30/06:00pm 29.4 E 7 10 1006.4 - 0.0 - - - - - - -
30/05:30pm 29.7 ENE 10 11 1005.7 - 0.0 - - - - - - -
30/05:00pm 30.5 E 11 13 1005.0 - 0.0 - - - - - - -
30/04:30pm 30.9 E 10 12 1005.0 - 0.0 - - - - - - -
30/04:00pm 30.9 E 9 13 1004.4 - 0.0 - - - - - - -
30/03:30pm 30.5 E 12 14 1004.6 - 0.0 - - - - - - -
30/03:00pm 30.4 E 14 17 1004.6 - 0.0 - - - - - - -
30/02:30pm 31.2 E 9 12 1004.3 - 0.0 - - - - - - -
30/02:00pm 31.1 NE 11 14 1004.4 - 0.0 - - - - - - -
30/01:30pm 31.2 NE 13 18 1004.7 - 0.0 - - - - - - -
30/01:16pm 31.6 ENE 9 19 1004.9 - 0.0 - - - - - - -
30/01:00pm 34.1 NNW 4 5 1004.9 - 0.0 - - - - - - -
30/12:30pm 34.3 NNW 4 8 1005.3 - 0.0 - - - - - - -
30/12:00pm 33.6 NNW 2 6 1005.7 - 0.0 - - - - - - -
30/11:30am 33.6 ESE 3 7 1006.5 - 0.0 - - - - - - -
30/11:00am 34.0 ESE 6 9 1007.4 - 0.0 - - - - - - -
30/10:30am 33.3 SSE 4 6 1007.7 - 0.0 - - - - - - -
30/10:00am 32.3 ESE 2 6 1008.0 - 0.0 - - - - - - -
30/09:30am 31.7 SW 3 5 1008.2 - 0.0 - - - - - - -
30/09:00am 31.4 SE 1 4 1008.3 - 10.2 - - - - - - -
30/08:30am 30.6 CALM 0 0 1008.1 - 10.2 - - - - - - -
30/08:00am 30.0 CALM 0 0 1008.1 - 10.2 - - - - - - -
30/07:30am 28.4 CALM 0 0 1007.8 - 10.0 - - - - - - -
30/07:00am 27.4 WSW 2 3 1007.7 - 10.0 - - - - - - -
30/06:30am 26.9 CALM 0 0 1007.6 - 10.0 - - - - - - -
30/06:00am 26.5 CALM 0 0 1007.5 - 10.0 - - - - - - -
30/05:30am 26.2 CALM 0 0 1007.0 - 10.0 - - - - - - -
30/05:00am 26.3 W 2 4 1006.3 - 10.0 - - - - - - -
30/04:30am 26.3 SW 5 7 1006.1 - 10.0 - - - - - - -
30/04:00am 26.3 SSW 4 5 1005.8 - 10.0 - - - - - - -
30/03:30am 26.4 SSW 4 6 1005.7 - 10.0 - - - - - - -
30/03:00am 26.6 S 4 6 1005.9 - 10.0 - - - - - - -
30/02:30am 26.5 CALM 0 0 1006.1 - 10.0 - - - - - - -
30/02:00am 26.6 CALM 0 0 1006.1 - 10.0 - - - - - - -
30/01:30am 27.3 WNW 4 5 1006.3 - 10.0 - - - - - - -
30/01:00am 27.4 WNW 7 8 1006.6 - 10.0 - - - - - - -
30/12:30am 27.6 W 5 6 1006.9 - 10.0 - - - - - - -
30/12:00am 27.8 WSW 11 14 1007.3 - 10.0 - - - - - - -
 
Date/Time
WST
Temp

°C
Wind Pressure Rain
since 9am
mm
Weather Cloud Vis
km
Sea
Height
m
Swell
Dir
 
Speed
knots
Gust
knots
hPa Trend Height
m
Period
s
Dir
29/11:30pm 28.4 CALM 0 0 1007.3 - 10.0 - - - - - - -
29/11:00pm 28.8 WNW 2 4 1007.6 - 10.0 - - - - - - -
29/10:30pm 29.2 WSW 5 6 1007.8 - 10.0 - - - - - - -
29/10:00pm 29.6 W 5 7 1008.1 - 10.0 - - - - - - -
29/09:30pm 29.7 N 1 4 1008.0 - 10.0 - - - - - - -
29/09:00pm 29.1 NE 6 7 1007.5 - 10.0 - - - - - - -
29/08:30pm 30.0 NNE 5 7 1007.2 - 10.0 - - - - - - -
29/08:00pm 29.6 E 5 6 1006.8 - 10.0 - - - - - - -
29/07:30pm 29.3 E 7 7 1006.6 - 10.0 - - - - - - -
29/07:00pm 29.6 E 7 8 1006.1 - 10.0 - - - - - - -
29/06:30pm 29.8 E 6 8 1005.7 - 10.0 - - - - - - -
29/06:00pm 30.1 E 5 5 1005.0 - 10.0 - - - - - - -
29/05:30pm 30.1 SE 4 5 1004.4 - 10.0 - - - - - - -
29/05:00pm 29.6 E 4 6 1003.9 - 10.0 - - - - - - -
29/04:30pm 29.2 ENE 8 12 1003.6 - 10.0 - - - - - - -
29/04:00pm 27.3 S 7 9 1003.6 - 10.0 - - - - - - -
29/03:30pm 27.0 NE 18 23 1003.9 - 4.8 - - - - - - -
29/03:26pm 28.2 NE 18 23 1003.7 - 1.0 - - - - - - -
29/03:13pm 33.3 W 6 20 1003.0 - 0.0 - - - - - - -
29/03:00pm 35.0 SSE 5 7 1002.8 - 0.0 - - - - - - -
29/02:30pm 34.4 SW 5 7 1003.2 - 0.0 - - - - - - -
29/02:00pm 34.7 SW 3 6 1003.6 - 0.0 - - - - - - -
29/01:30pm 34.6 WNW 6 10 1004.0 - 0.0 - - - - - - -
29/01:00pm 33.4 SSW 3 7 1004.6 - 0.0 - - - - - - -
29/12:30pm 33.4 SSW 5 7 1005.2 - 0.0 - - - - - - -
29/12:00pm 32.4 WNW 5 7 1005.7 - 0.0 - - - - - - -
29/11:30am 31.9 SW 2 6 1006.3 - 0.0 - - - - - - -
29/11:00am 31.0 W 4 6 1006.7 - 0.0 - - - - - - -
29/10:30am 31.4 S 4 7 1007.0 - 0.0 - - - - - - -
29/10:00am 30.5 SSW 5 8 1007.5 - 0.0 - - - - - - -
29/09:30am 30.3 SW 5 8 1007.6 - 0.0 - - - - - - -
29/09:00am 29.4 SW 5 8 1007.9 - 0.0 - - - - - - -
29/08:30am 28.7 W 5 8 1007.9 - 0.0 - - - - - - -
29/08:00am 28.4 N 6 8 1007.8 - 0.0 - - - - - - -
29/07:30am 28.0 NNW 6 9 1008.1 - 0.0 - - - - - - -
29/07:00am 26.8 NNW 5 9 1008.1 - 0.0 - - - - - - -
29/06:30am 26.0 NNE 7 12 1007.9 - 0.0 - - - - - - -
29/06:00am 25.7 NNE 9 14 1007.6 - 0.0 - - - - - - -
29/05:30am 25.6 NNE 9 12 1006.8 - 0.0 - - - - - - -
29/05:00am 26.0 N 11 17 1006.2 - 0.0 - - - - - - -
29/04:30am 26.7 CALM 0 0 1005.6 - 0.0 - - - - - - -
29/04:00am 26.6 CALM 0 0 1005.0 - 0.0 - - - - - - -
29/03:30am 26.6 NNW 1 3 1005.0 - 0.0 - - - - - - -
29/03:00am 26.4 N 3 4 1004.9 - 0.0 - - - - - - -
29/02:30am 26.3 N 4 5 1004.6 - 0.0 - - - - - - -
29/02:00am 26.5 WNW 3 4 1004.6 - 0.0 - - - - - - -
29/01:30am 26.5 W 5 7 1004.8 - 0.0 - - - - - - -
29/01:00am 26.7 WSW 5 6 1005.1 - 0.0 - - - - - - -
29/12:30am 26.7 SW 5 6 1005.2 - 0.0 - - - - - - -

Other Formats:

Comma delimited format used in spreadsheet applications
http://www.bom.gov.au/fwo/IDW60701/IDW60701.95214.axf

JavaScript Object Notation format (JSON) in row-major order
http://www.bom.gov.au/fwo/IDW60701/IDW60701.95214.json